Time;durP1;ratioP1;P1;durP2;ratioP2;P2;SDS_P1;SDS_P2;PMS_P1;PMS_P2;Temp;Humidity;BMP_temperature;BMP_pressure;BME280_temperature;BME280_humidity;BME280_pressure;Samples;Min_cycle;Max_cycle;Signal;HPM_P1;HPM_P2
2023/01/03 00:01:55;;;;;;;56.55;20.30;;;;;;;11.18;100.00;102160.78;4955183;28;20051;-84
2023/01/03 00:04:23;;;;;;;53.22;19.77;;;;;;;11.22;100.00;102161.94;4955692;29;20047;-84
2023/01/03 00:06:53;;;;;;;58.17;19.70;;;;;;;11.32;100.00;102158.53;4938345;29;20098;-85
2023/01/03 00:09:22;;;;;;;61.40;19.40;;;;;;;11.34;100.00;102162.69;4956158;29;20387;-84
2023/01/03 00:14:41;;;;;;;58.30;20.48;;;;;;;11.28;100.00;102155.47;4955930;29;20544;-85
2023/01/03 00:17:10;;;;;;;58.90;19.75;;;;;;;11.30;100.00;102158.81;4956427;29;20070;-84
2023/01/03 00:19:43;;;;;;;49.42;18.83;;;;;;;11.32;100.00;102155.78;4955204;29;20410;-84
2023/01/03 00:22:13;;;;;;;52.03;18.95;;;;;;;11.31;100.00;102159.63;4956582;29;20047;-85
2023/01/03 00:24:42;;;;;;;56.78;19.02;;;;;;;11.09;100.00;102163.06;4955688;29;20067;-84
2023/01/03 00:27:10;;;;;;;57.95;20.00;;;;;;;11.13;100.00;102150.53;4955969;29;20059;-84
2023/01/03 00:29:38;;;;;;;54.15;19.98;;;;;;;11.14;100.00;102154.94;4955871;29;20042;-84
2023/01/03 00:32:08;;;;;;;61.28;21.52;;;;;;;11.20;100.00;102148.47;4937631;29;20054;-84
2023/01/03 00:34:36;;;;;;;51.60;17.60;;;;;;;11.22;100.00;102151.81;4955339;29;20043;-84
2023/01/03 00:37:04;;;;;;;45.40;16.98;;;;;;;11.25;100.00;102145.00;4957743;29;20394;-84
2023/01/03 00:39:33;;;;;;;52.45;17.73;;;;;;;11.24;100.00;102144.16;4955967;29;20059;-85
2023/01/03 00:42:00;;;;;;;60.95;20.02;;;;;;;11.20;100.00;102147.66;4956748;29;20059;-85
2023/01/03 00:44:28;;;;;;;53.15;18.92;;;;;;;11.27;100.00;102148.31;4955846;29;20051;-84
2023/01/03 00:46:56;;;;;;;57.72;20.05;;;;;;;11.30;100.00;102147.84;4954615;29;20055;-84
2023/01/03 00:49:25;;;;;;;55.97;20.45;;;;;;;11.37;100.00;102140.28;4954768;29;20055;-84
2023/01/03 00:51:53;;;;;;;49.97;20.13;;;;;;;11.35;100.00;102149.84;4953579;29;20055;-84
2023/01/03 00:54:21;;;;;;;46.67;19.25;;;;;;;11.34;100.00;102150.91;4955026;29;20051;-84
2023/01/03 00:56:50;;;;;;;53.50;17.60;;;;;;;11.24;100.00;102144.16;4954903;29;20052;-85
2023/01/03 00:59:20;;;;;;;52.70;18.30;;;;;;;11.23;100.00;102147.13;4955280;29;20052;-84
2023/01/03 01:01:51;;;;;;;48.10;17.83;;;;;;;11.34;100.00;102146.25;4954156;29;20055;-84
2023/01/03 01:04:28;;;;;;;53.67;18.35;;;;;;;11.36;100.00;102156.97;4955154;29;20482;-84
2023/01/03 01:07:00;;;;;;;49.38;16.63;;;;;;;11.39;100.00;102154.56;4955054;29;20058;-85
2023/01/03 01:09:34;;;;;;;51.72;18.33;;;;;;;11.34;100.00;102159.16;4955259;29;20517;-85
2023/01/03 01:12:06;;;;;;;46.63;17.55;;;;;;;11.30;100.00;102158.81;4955166;29;20059;-85
2023/01/03 01:14:34;;;;;;;47.85;18.05;;;;;;;11.33;100.00;102154.75;4957650;28;20058;-84
2023/01/03 01:17:06;;;;;;;48.40;17.50;;;;;;;11.33;100.00;102165.72;4958904;29;20398;-84
2023/01/03 01:19:42;;;;;;;51.25;18.63;;;;;;;11.28;100.00;102160.94;4959022;29;20055;-84
2023/01/03 01:22:11;;;;;;;50.78;18.77;;;;;;;11.36;100.00;102146.84;4959182;29;20062;-84
2023/01/03 01:24:39;;;;;;;46.40;18.25;;;;;;;11.35;100.00;102153.38;4958325;29;20055;-85
2023/01/03 01:27:07;;;;;;;55.72;17.52;;;;;;;11.35;100.00;102158.06;4958162;29;20494;-85
2023/01/03 01:29:36;;;;;;;46.15;18.85;;;;;;;11.43;100.00;102143.94;4941330;29;20047;-84
2023/01/03 01:32:05;;;;;;;46.70;17.50;;;;;;;11.28;100.00;102161.78;4958357;29;20063;-85
2023/01/03 01:34:33;;;;;;;41.75;17.45;;;;;;;11.34;100.00;102162.69;4958526;29;20051;-84
2023/01/03 01:37:01;;;;;;;52.00;18.30;;;;;;;11.27;100.00;102160.13;4958412;29;20078;-85
2023/01/03 01:39:29;;;;;;;45.30;17.85;;;;;;;11.22;100.00;102168.25;4958777;29;20047;-84
2023/01/03 01:44:55;;;;;;;44.33;18.00;;;;;;;11.29;100.00;102171.66;4958550;29;20059;-84
2023/01/03 01:47:23;;;;;;;;;;;;;;;11.37;100.00;102169.59;4958139;29;20414;-84
2023/01/03 01:50:13;;;;;;;44.65;16.20;;;;;;;11.35;100.00;102160.81;4941084;29;19922;-84
2023/01/03 01:52:47;;;;;;;49.83;18.60;;;;;;;11.35;100.00;102160.81;4957762;29;20047;-84
2023/01/03 01:55:20;;;;;;;52.60;17.52;;;;;;;11.31;100.00;102170.59;4958612;29;20482;-84
2023/01/03 01:57:48;;;;;;;49.03;16.85;;;;;;;11.37;100.00;102167.69;4958227;29;20053;-84
2023/01/03 02:00:16;;;;;;;55.17;17.35;;;;;;;11.32;100.00;102162.13;4957537;29;20263;-84
2023/01/03 02:02:48;;;;;;;51.97;18.58;;;;;;;11.23;100.00;102160.84;4957192;29;20047;-84
2023/01/03 02:05:19;;;;;;;56.20;19.40;;;;;;;11.27;100.00;102157.38;4958452;29;20051;-84
2023/01/03 02:07:49;;;;;;;52.63;17.50;;;;;;;11.29;100.00;102154.38;4958797;29;20055;-85
2023/01/03 02:10:25;;;;;;;53.58;18.73;;;;;;;11.26;100.00;102153.00;4958457;29;20055;-85
2023/01/03 02:13:09;;;;;;;48.92;17.80;;;;;;;11.29;100.00;102152.47;4941128;29;20058;-84
2023/01/03 02:15:59;;;;;;;54.80;19.63;;;;;;;11.33;100.00;102146.53;4957817;29;20059;-84
2023/01/03 02:18:37;;;;;;;56.75;18.52;;;;;;;11.17;100.00;102151.72;4958532;29;20127;-85
2023/01/03 02:21:53;;;;;;;50.67;18.70;;;;;;;11.20;100.00;102151.19;4957721;29;20443;-84
2023/01/03 02:24:53;;;;;;;46.10;15.98;;;;;;;11.22;100.00;102151.81;4949327;28;20062;-84
2023/01/03 02:27:27;;;;;;;51.30;17.30;;;;;;;11.21;100.00;102150.16;4958147;29;20038;-85
2023/01/03 02:30:45;;;;;;;43.35;17.25;;;;;;;11.24;100.00;102141.41;4957537;29;20051;-84
2023/01/03 02:33:43;;;;;;;50.95;17.48;;;;;;;11.25;100.00;102139.53;4916960;29;20040;-85
2023/01/03 02:36:11;;;;;;;48.72;18.20;;;;;;;11.23;100.00;102134.28;4958300;29;20047;-84
2023/01/03 02:38:57;;;;;;;49.92;17.48;;;;;;;11.18;100.00;102139.66;4957914;29;20059;-84
2023/01/03 02:42:56;;;;;;;43.53;16.83;;;;;;;11.20;100.00;102144.91;4957508;29;20055;-85
2023/01/03 02:44:52;;;;;;;50.50;18.92;;;;;;;11.23;100.00;102142.50;4957564;29;20059;-84
2023/01/03 02:47:23;;;;;;;53.83;18.00;;;;;;;11.20;100.00;102140.25;4940812;29;20518;-84
2023/01/03 02:49:52;;;;;;;54.03;18.02;;;;;;;11.16;100.00;102139.09;4957695;29;20046;-85
2023/01/03 02:52:25;;;;;;;53.65;17.27;;;;;;;11.12;100.00;102138.75;4971702;28;20052;-85
2023/01/03 02:55:04;;;;;;;52.13;18.08;;;;;;;11.22;100.00;102135.38;4957325;29;20395;-84
2023/01/03 02:58:13;;;;;;;46.05;17.40;;;;;;;11.22;100.00;102129.03;4957561;29;20066;-84
2023/01/03 03:00:50;;;;;;;49.70;18.42;;;;;;;11.30;100.00;102131.41;4957546;29;20062;-84
2023/01/03 03:03:24;;;;;;;61.33;18.63;;;;;;;11.30;100.00;102125.91;4957126;29;20051;-84
2023/01/03 03:06:08;;;;;;;56.45;19.88;;;;;;;11.31;100.00;102133.06;4956720;29;20036;-84
2023/01/03 03:08:36;;;;;;;52.05;17.77;;;;;;;11.31;100.00;102124.84;4956406;29;20055;-85
2023/01/03 03:13:57;;;;;;;49.83;18.70;;;;;;;11.20;100.00;102132.03;4956999;29;20055;-84
2023/01/03 03:16:46;;;;;;;54.90;19.73;;;;;;;11.11;100.00;102136.25;4956995;29;20047;-84
2023/01/03 03:25:43;;;;;;;53.17;18.52;;;;;;;11.29;100.00;102119.59;4937506;29;20052;-85
2023/01/03 03:28:33;;;;;;;47.75;17.90;;;;;;;11.25;100.00;102117.59;4938273;29;20058;-85
2023/01/03 03:31:15;;;;;;;56.67;19.20;;;;;;;11.25;100.00;102118.41;4951741;29;20051;-85
2023/01/03 03:33:52;;;;;;;51.20;20.40;;;;;;;11.30;100.00;102123.19;4956664;29;20051;-85
2023/01/03 03:36:39;;;;;;;59.03;19.95;;;;;;;11.23;100.00;102119.75;4956584;28;20051;-85
2023/01/03 03:44:59;;;;;;;50.17;18.63;;;;;;;11.23;100.00;102122.47;4956805;29;20051;-84
2023/01/03 03:45:03;;;;;;;53.30;17.65;;;;;;;11.25;100.00;102117.59;4956672;29;20051;-85
2023/01/03 03:47:49;;;;;;;47.83;17.67;;;;;;;11.28;100.00;102123.41;4956391;29;20051;-84
2023/01/03 03:51:00;;;;;;;48.25;17.20;;;;;;;11.28;100.00;102123.41;4956237;29;20059;-84
2023/01/03 03:53:34;;;;;;;59.42;19.05;;;;;;;11.26;100.00;102122.84;4945167;29;20055;-84
2023/01/03 03:56:06;;;;;;;41.60;16.70;;;;;;;11.18;100.00;102125.16;4957315;29;20055;-84
2023/01/03 03:58:41;;;;;;;55.67;19.10;;;;;;;11.19;100.00;102132.28;4956175;29;20058;-84
2023/01/03 04:01:12;;;;;;;50.85;18.83;;;;;;;11.11;100.00;102134.31;4956448;29;20048;-84
2023/01/03 04:03:43;;;;;;;50.50;17.60;;;;;;;11.25;100.00;102128.56;4956260;29;20051;-84
2023/01/03 04:06:21;;;;;;;53.17;18.88;;;;;;;11.23;100.00;102117.00;4956235;29;20044;-84
2023/01/03 04:08:49;;;;;;;53.53;17.60;;;;;;;11.13;100.00;102125.88;4956030;29;20059;-84
2023/01/03 04:11:17;;;;;;;53.33;19.85;;;;;;;11.12;100.00;102121.47;4955385;29;20055;-84
2023/01/03 04:13:45;;;;;;;55.13;18.70;;;;;;;11.02;100.00;102119.38;4955777;29;20380;-84
2023/01/03 04:16:13;;;;;;;66.45;19.80;;;;;;;11.11;100.00;102122.56;4955643;29;20055;-84
2023/01/03 04:18:41;;;;;;;53.88;17.92;;;;;;;11.11;100.00;102114.34;4955964;29;20062;-84
2023/01/03 04:21:09;;;;;;;57.47;17.23;;;;;;;11.23;100.00;102111.53;4956002;29;20054;-85
2023/01/03 04:23:45;;;;;;;58.15;19.73;;;;;;;11.02;100.00;102116.63;4956296;29;20063;-85
2023/01/03 04:26:13;;;;;;;52.80;19.52;;;;;;;11.11;100.00;102122.56;4955392;29;20051;-85
2023/01/03 04:28:41;;;;;;;56.28;18.63;;;;;;;11.08;100.00;102123.03;4955277;29;20058;-85
2023/01/03 04:31:08;;;;;;;59.47;17.42;;;;;;;10.96;100.00;102123.09;4955588;29;20398;-85
2023/01/03 04:33:36;;;;;;;51.35;19.00;;;;;;;11.06;100.00;102125.19;4955410;29;20051;-85
2023/01/03 04:36:04;;;;;;;57.22;18.90;;;;;;;11.10;100.00;102126.38;4954799;29;20047;-85
2023/01/03 04:38:32;;;;;;;52.10;17.02;;;;;;;11.12;100.00;102130.53;4955197;29;20062;-85
2023/01/03 04:41:07;;;;;;;54.13;18.63;;;;;;;11.01;100.00;102132.22;4955594;29;20051;-85
2023/01/03 04:46:22;;;;;;;52.72;17.88;;;;;;;11.09;100.00;102119.25;4955948;29;20501;-86
2023/01/03 04:48:50;;;;;;;55.67;17.77;;;;;;;11.08;100.00;102117.56;4954287;28;20043;-85
2023/01/03 04:51:18;;;;;;;58.83;19.58;;;;;;;11.16;100.00;102128.13;4954663;29;20059;-86
2023/01/03 04:53:46;;;;;;;52.00;17.83;;;;;;;11.16;100.00;102125.38;4955633;29;20055;-85
2023/01/03 04:56:14;;;;;;;58.17;17.52;;;;;;;11.13;100.00;102125.88;4955410;29;20047;-85
2023/01/03 04:58:42;;;;;;;45.03;17.85;;;;;;;11.13;100.00;102132.19;4938357;29;20059;-84
2023/01/03 05:01:10;;;;;;;54.53;17.77;;;;;;;11.17;100.00;102127.06;4954856;29;20410;-85
2023/01/03 05:03:38;;;;;;;51.25;18.05;;;;;;;11.21;100.00;102128.22;4955800;29;20051;-86
2023/01/03 05:06:07;;;;;;;51.58;18.83;;;;;;;11.23;100.00;102126.06;4955284;29;20055;-85
2023/01/03 05:08:35;;;;;;;51.90;17.67;;;;;;;11.30;100.00;102125.91;4954872;29;20406;-85
2023/01/03 05:11:05;;;;;;;49.25;16.70;;;;;;;11.24;100.00;102130.47;4954700;29;20048;-85
2023/01/03 05:13:33;;;;;;;57.47;18.73;;;;;;;11.20;100.00;102126.53;4954593;29;20047;-85
2023/01/03 05:16:10;;;;;;;53.72;18.88;;;;;;;11.20;100.00;102123.00;4955205;29;20047;-85
2023/01/03 05:18:41;;;;;;;54.45;17.88;;;;;;;11.10;100.00;102123.63;4954948;29;20051;-85
2023/01/03 05:26:47;;;;;;;51.75;17.17;;;;;;;11.23;100.00;102147.13;4954953;29;20039;-85
2023/01/03 05:29:18;;;;;;;48.28;17.15;;;;;;;11.12;100.00;102146.13;4954591;29;20043;-85
2023/01/03 05:31:47;;;;;;;50.40;17.10;;;;;;;11.14;100.00;102149.44;4955417;29;20047;-85
2023/01/03 05:34:15;;;;;;;47.90;16.80;;;;;;;11.13;100.00;102148.63;4955326;29;20039;-85
2023/01/03 05:36:42;;;;;;;49.53;17.58;;;;;;;11.20;100.00;102147.66;4954342;29;20059;-85
2023/01/03 05:39:11;;;;;;;53.38;17.63;;;;;;;11.17;100.00;102157.19;4954586;29;20059;-85
2023/01/03 05:44:29;;;;;;;41.85;17.65;;;;;;;11.08;100.00;102150.44;4954801;29;20059;-86
2023/01/03 05:46:59;;;;;;;50.53;16.63;;;;;;;11.18;100.00;102161.59;4953571;29;20054;-79
2023/01/03 05:49:28;;;;;;;52.15;17.42;;;;;;;11.32;100.00;102161.28;4954952;29;20048;-84
2023/01/03 05:51:56;;;;;;;52.85;18.55;;;;;;;11.27;100.00;102167.50;4952344;29;20054;-85
2023/01/03 05:54:23;;;;;;;51.28;16.90;;;;;;;11.38;100.00;102171.25;4955432;28;20043;-84
2023/01/03 05:56:51;;;;;;;45.25;17.00;;;;;;;11.36;100.00;102165.19;4952109;29;20040;-84
2023/01/03 05:59:21;;;;;;;55.67;19.73;;;;;;;11.42;100.00;102166.97;4952305;28;20517;-84
2023/01/03 06:01:49;;;;;;;45.72;17.02;;;;;;;11.32;100.00;102169.50;4957595;29;20062;-84
2023/01/03 06:04:17;;;;;;;47.72;16.55;;;;;;;11.20;100.00;102175.88;4957395;29;20066;-84
2023/01/03 06:06:47;;;;;;;50.85;17.17;;;;;;;11.32;100.00;102172.25;4957663;29;20051;-85
2023/01/03 06:09:15;;;;;;;51.90;17.55;;;;;;;11.32;100.00;102166.75;4957638;29;20078;-84
2023/01/03 06:11:43;;;;;;;49.63;17.95;;;;;;;11.25;100.00;102159.53;4957757;29;20418;-83
2023/01/03 06:14:11;;;;;;;49.53;17.90;;;;;;;11.29;100.00;102173.56;4957481;29;20490;-86
2023/01/03 06:19:25;;;;;;;47.10;17.08;;;;;;;11.26;100.00;102174.06;4956447;29;20047;-85
2023/01/03 06:21:53;;;;;;;48.78;18.63;;;;;;;11.26;100.00;102185.88;4972405;28;20044;-85
2023/01/03 06:24:21;;;;;;;50.20;17.63;;;;;;;11.21;100.00;102180.28;4940639;29;20055;-84
2023/01/03 06:26:49;;;;;;;44.15;16.88;;;;;;;11.24;100.00;102188.00;4956896;29;20058;-84
2023/01/03 06:29:16;;;;;;;44.65;16.65;;;;;;;11.31;100.00;102187.88;4957049;29;20043;-85
2023/01/03 06:31:44;;;;;;;44.75;16.35;;;;;;;11.31;100.00;102192.50;4957273;29;20055;-84
2023/01/03 06:34:14;;;;;;;52.38;16.63;;;;;;;11.25;100.00;102189.66;4956744;29;20051;-85
2023/01/03 06:36:42;;;;;;;46.28;16.17;;;;;;;11.19;100.00;102185.16;4956160;29;20050;-84
2023/01/03 06:39:10;;;;;;;44.70;16.38;;;;;;;11.28;100.00;102183.72;4957589;28;20119;-85
2023/01/03 06:41:37;;;;;;;48.10;15.55;;;;;;;11.24;100.00;102177.03;4956365;29;20047;-85
2023/01/03 06:44:05;;;;;;;47.55;17.77;;;;;;;11.25;100.00;102177.91;4956854;29;20059;-84
2023/01/03 06:55:02;;;;;;;47.28;17.60;;;;;;;11.29;100.00;102176.31;4957287;29;20047;-84
2023/01/03 06:57:29;;;;;;;54.38;17.23;;;;;;;11.31;100.00;102181.53;4936176;29;20517;-84
2023/01/03 06:59:57;;;;;;;50.95;17.90;;;;;;;11.32;100.00;102186.78;4938372;29;20063;-84
2023/01/03 07:02:25;;;;;;;51.03;17.55;;;;;;;11.27;100.00;102181.22;4956626;29;20043;-84
2023/01/03 07:04:53;;;;;;;58.03;18.05;;;;;;;11.24;100.00;102182.53;4956773;29;20051;-84
2023/01/03 07:07:21;;;;;;;50.13;16.92;;;;;;;11.22;100.00;102190.19;4953868;29;20502;-84
2023/01/03 07:09:49;;;;;;;49.35;16.73;;;;;;;11.23;100.00;102180.88;4956613;29;20055;-84
2023/01/03 07:15:18;;;;;;;54.20;17.02;;;;;;;11.32;100.00;102197.75;4923434;29;20446;-84
2023/01/03 07:17:46;;;;;;;55.10;18.27;;;;;;;11.33;100.00;102198.59;4956131;29;20054;-84
2023/01/03 07:20:14;;;;;;;49.42;16.88;;;;;;;11.38;100.00;102198.66;4955720;29;20062;-84
2023/01/03 07:22:42;;;;;;;48.60;17.25;;;;;;;11.38;100.00;102209.63;4955603;29;20074;-84
2023/01/03 07:25:10;;;;;;;45.17;16.45;;;;;;;11.34;100.00;102211.22;4954513;29;20352;-84
2023/01/03 07:27:37;;;;;;;50.28;16.52;;;;;;;11.38;100.00;102205.00;4955848;29;20136;-84
2023/01/03 07:30:06;;;;;;;48.30;16.00;;;;;;;11.45;100.00;102202.13;4970693;28;20047;-83
2023/01/03 07:32:34;;;;;;;43.88;16.75;;;;;;;11.55;100.00;102209.69;4956090;29;20051;-84
2023/01/03 07:35:02;;;;;;;53.72;17.65;;;;;;;11.63;100.00;102200.25;4949884;29;20074;-83
2023/01/03 07:37:30;;;;;;;51.78;16.67;;;;;;;11.53;100.00;102209.94;4936797;29;20517;-84
2023/01/03 07:39:58;;;;;;;47.28;16.92;;;;;;;11.50;100.00;102217.81;4952184;29;20054;-85
2023/01/03 07:45:12;;;;;;;47.55;16.60;;;;;;;11.47;100.00;102208.16;4955544;29;20078;-83
2023/01/03 07:47:44;;;;;;;52.55;17.40;;;;;;;11.51;100.00;102211.25;4955098;29;20051;-83
2023/01/03 07:50:12;;;;;;;45.92;16.73;;;;;;;11.45;100.00;102204.00;4956429;29;20071;-83
2023/01/03 07:52:40;;;;;;;48.15;16.80;;;;;;;11.61;100.00;102214.19;4955169;29;20059;-83
2023/01/03 07:55:08;;;;;;;50.95;16.70;;;;;;;11.64;100.00;102208.19;4938545;29;20395;-83
2023/01/03 07:57:37;;;;;;;50.47;17.52;;;;;;;11.73;100.00;102214.09;4956187;29;20043;-83
2023/01/03 08:00:05;;;;;;;47.78;17.65;;;;;;;11.90;100.00;102210.56;4955836;29;20051;-83
2023/01/03 08:02:38;;;;;;;49.55;16.90;;;;;;;11.79;100.00;102207.63;4954827;29;20048;-86
2023/01/03 08:05:07;;;;;;;45.65;16.27;;;;;;;11.64;100.00;102207.38;4955869;29;20043;-83
2023/01/03 08:07:35;;;;;;;45.13;16.42;;;;;;;11.71;100.00;102208.03;4956869;29;20054;-85
2023/01/03 08:15:38;;;;;;;45.25;17.95;;;;;;;11.46;100.00;102212.00;4955227;29;20082;-90
2023/01/03 08:18:06;;;;;;;50.72;17.10;;;;;;;11.50;100.00;102206.84;4955659;29;20063;-87
2023/01/03 08:20:33;;;;;;;48.83;17.17;;;;;;;11.44;100.00;102214.13;4954752;29;20051;-91
2023/01/03 08:23:01;;;;;;;47.08;18.33;;;;;;;11.50;100.00;102213.19;4955690;28;20050;-87
2023/01/03 08:25:29;;;;;;;47.30;16.88;;;;;;;11.43;100.00;102215.22;4954263;29;20494;-87
2023/01/03 08:27:58;;;;;;;42.60;16.80;;;;;;;11.51;100.00;102209.34;4954376;29;20052;-87
2023/01/03 08:30:27;;;;;;;46.60;17.13;;;;;;;11.63;100.00;102220.25;4955130;29;20058;-87
2023/01/03 08:33:00;;;;;;;48.42;17.85;;;;;;;11.91;100.00;102229.50;4955224;29;20043;-87
2023/01/03 08:35:32;;;;;;;49.47;18.52;;;;;;;11.99;100.00;102235.66;4964676;28;20043;-88
2023/01/03 08:38:02;;;;;;;45.08;17.02;;;;;;;12.01;100.00;102233.50;4956550;29;20078;-87
2023/01/03 08:40:34;;;;;;;43.88;16.92;;;;;;;12.02;100.00;102236.00;4953348;29;20066;-87
2023/01/03 08:43:11;;;;;;;38.30;16.05;;;;;;;11.99;100.00;102230.16;4953565;29;20047;-87
2023/01/03 08:45:39;;;;;;;45.65;17.10;;;;;;;12.19;100.00;102235.19;4954869;29;20043;-93
2023/01/03 08:48:08;;;;;;;42.60;16.42;;;;;;;12.26;100.00;102244.09;4953945;29;20062;-88
2023/01/03 08:50:36;;;;;;;45.60;17.17;;;;;;;12.34;100.00;102243.69;4955129;29;20517;-88
2023/01/03 08:53:04;;;;;;;44.72;17.23;;;;;;;12.47;100.00;102247.97;4954595;29;20047;-85
2023/01/03 08:55:33;;;;;;;45.75;16.73;;;;;;;12.35;100.00;102239.00;4953583;29;20062;-86
2023/01/03 08:58:01;;;;;;;47.90;17.70;;;;;;;12.42;100.00;102247.91;4955029;29;20051;-86
2023/01/03 09:00:28;;;;;;;44.22;16.65;;;;;;;12.55;100.00;102243.13;4955227;29;20059;-90
2023/01/03 09:02:58;;;;;;;43.33;15.40;;;;;;;12.69;100.00;102254.59;4954246;29;20047;-86
2023/01/03 09:05:27;;;;;;;39.10;17.40;;;;;;;12.81;100.00;102249.81;4954121;29;20043;-84
2023/01/03 09:07:57;;;;;;;41.90;16.33;;;;;;;12.94;100.00;102256.03;4954470;29;20055;-84
2023/01/03 09:10:25;;;;;;;45.70;16.90;;;;;;;12.81;100.00;102252.56;4954301;29;20490;-81
2023/01/03 09:12:53;;;;;;;38.05;16.38;;;;;;;12.95;100.00;102263.19;4954183;29;20379;-82
2023/01/03 09:15:21;;;;;;;39.08;16.88;;;;;;;12.95;100.00;102254.97;4954009;29;20055;-81
2023/01/03 09:17:49;;;;;;;35.63;15.05;;;;;;;12.88;100.00;102263.38;4954718;29;20047;-81
2023/01/03 09:20:18;;;;;;;38.28;16.65;;;;;;;12.76;100.00;102266.25;4954315;29;20390;-81
2023/01/03 09:22:46;;;;;;;33.22;15.27;;;;;;;12.83;100.00;102260.56;4936926;29;20445;-81
2023/01/03 09:25:14;;;;;;;39.22;15.93;;;;;;;12.72;100.00;102265.09;4954217;29;20526;-81
2023/01/03 09:27:46;;;;;;;43.55;15.18;;;;;;;13.08;100.00;102253.72;4953563;29;20055;-81
2023/01/03 09:30:15;;;;;;;40.58;16.42;;;;;;;12.98;100.00;102255.28;4954635;29;20043;-81
2023/01/03 09:32:43;;;;;;;39.75;16.40;;;;;;;13.11;100.00;102251.28;4954009;29;20051;-81
2023/01/03 09:35:11;;;;;;;41.65;15.95;;;;;;;13.36;100.00;102260.94;4956510;28;20055;-81
2023/01/03 09:37:39;;;;;;;38.25;15.55;;;;;;;13.11;100.00;102267.78;4958601;29;20502;-81
2023/01/03 09:40:15;;;;;;;38.20;15.60;;;;;;;13.17;100.00;102263.19;4957943;29;20499;-81
2023/01/03 09:45:33;;;;;;;36.20;15.50;;;;;;;12.97;100.00;102255.53;4957848;29;20055;-81
2023/01/03 09:48:04;;;;;;;32.78;15.52;;;;;;;13.13;100.00;102251.88;4957426;29;20051;-81
2023/01/03 09:50:35;;;;;;;34.70;15.43;;;;;;;13.13;100.00;102251.88;4958141;29;20589;-80
2023/01/03 10:05:48;;;;;;;45.38;20.33;;;;;;;13.62;100.00;102235.66;4957646;29;20502;-81
2023/01/03 10:08:39;;;;;;;38.75;16.50;;;;;;;13.59;100.00;102230.69;4879589;29;20390;-81
2023/01/03 10:11:17;;;;;;;39.50;17.70;;;;;;;13.67;100.00;102236.53;4879874;29;20093;-81
2023/01/03 10:13:45;;;;;;;44.28;17.73;;;;;;;13.52;100.00;102222.63;4911214;29;20047;-81
2023/01/03 10:16:40;;;;;;;33.60;16.70;;;;;;;13.43;100.00;102224.97;4957277;29;20058;-81
2023/01/03 10:19:50;;;;;;;41.20;16.77;;;;;;;13.44;100.00;102218.38;4957573;29;20498;-81
2023/01/03 10:22:21;;;;;;;36.45;16.85;;;;;;;13.55;100.00;102222.13;4956380;29;20055;-81
2023/01/03 10:24:55;;;;;;;39.80;17.45;;;;;;;13.69;100.00;102217.03;4957809;29;20513;-81
2023/01/03 10:27:26;;;;;;;36.13;16.17;;;;;;;13.70;100.00;102216.75;4957442;29;20379;-81
2023/01/03 10:30:01;;;;;;;39.42;17.15;;;;;;;13.68;100.00;102205.19;4957253;29;20047;-81
2023/01/03 10:32:50;;;;;;;40.30;17.45;;;;;;;13.78;100.00;102209.94;4956243;29;20383;-81
2023/01/03 10:35:32;;;;;;;37.85;15.73;;;;;;;13.66;100.00;102206.53;4956906;29;20047;-81
2023/01/03 10:38:00;;;;;;;41.40;16.98;;;;;;;13.75;100.00;102204.16;4957332;29;20475;-81
2023/01/03 10:40:46;;;;;;;36.28;15.20;;;;;;;13.70;100.00;102205.75;4957022;29;20051;-81
2023/01/03 10:43:27;;;;;;;37.65;16.58;;;;;;;13.46;100.00;102208.00;4959204;29;20047;-81
2023/01/03 10:46:03;;;;;;;35.47;16.63;;;;;;;13.74;100.00;102202.50;4956233;28;20055;-81
2023/01/03 10:48:46;;;;;;;39.35;17.02;;;;;;;13.76;100.00;102211.31;4957267;29;20078;-81
2023/01/03 10:52:02;;;;;;;38.50;16.40;;;;;;;13.86;100.00;102191.28;4956577;29;20078;-81
2023/01/03 10:54:33;;;;;;;37.47;15.63;;;;;;;13.95;100.00;102193.31;4954878;29;20070;-81
2023/01/03 10:57:01;;;;;;;33.67;16.42;;;;;;;13.87;100.00;102190.22;4939293;29;20055;-81
2023/01/03 10:59:30;;;;;;;35.42;16.33;;;;;;;13.76;100.00;102189.28;4956865;29;20039;-81
2023/01/03 11:02:01;;;;;;;40.97;15.70;;;;;;;13.78;100.00;102184.38;4955925;29;20491;-81
2023/01/03 11:04:31;;;;;;;37.38;17.23;;;;;;;13.46;100.00;102185.13;4957240;29;20510;-81
2023/01/03 11:06:59;;;;;;;38.80;16.02;;;;;;;13.33;100.00;102181.72;4956582;29;20051;-81
2023/01/03 11:09:34;;;;;;;34.60;14.60;;;;;;;13.08;100.00;102180.38;4956577;29;20062;-81
2023/01/03 11:12:05;;;;;;;44.53;16.38;;;;;;;13.28;100.00;102162.41;4956872;29;20047;-81
2023/01/03 11:14:33;;;;;;;37.42;14.82;;;;;;;13.28;100.00;102174.25;4956361;29;20517;-81
2023/01/03 11:17:03;;;;;;;33.05;15.05;;;;;;;13.41;100.00;102166.69;4954500;29;20043;-81
2023/01/03 11:19:32;;;;;;;34.35;15.20;;;;;;;13.40;100.00;102163.09;4956078;29;20054;-82
2023/01/03 11:22:17;;;;;;;35.17;16.25;;;;;;;13.51;100.00;102165.97;4955261;29;20078;-81
2023/01/03 11:24:45;;;;;;;;;;;;;;;13.46;100.00;102157.63;4971530;28;20402;-81
2023/01/03 11:27:39;;;;;;;34.53;16.35;;;;;;;13.38;100.00;102162.53;4956464;29;19926;-80
2023/01/03 11:30:44;;;;;;;36.95;16.80;;;;;;;13.50;100.00;102164.31;4956693;29;20035;-80
2023/01/03 11:33:21;;;;;;;35.65;15.77;;;;;;;13.56;100.00;102169.63;4937258;29;20399;-81
2023/01/03 11:36:11;;;;;;;31.25;14.20;;;;;;;13.36;100.00;102161.97;4935793;29;20035;-80
2023/01/03 11:39:09;;;;;;;37.10;14.95;;;;;;;13.54;100.00;102165.47;4951660;28;20083;-80
2023/01/03 11:42:00;;;;;;;32.75;15.45;;;;;;;13.58;100.00;102166.56;4937117;29;20074;-81
2023/01/03 11:44:40;;;;;;;35.88;14.90;;;;;;;13.65;100.00;102166.38;4954223;29;20474;-80
2023/01/03 11:47:40;;;;;;;32.45;14.65;;;;;;;13.59;100.00;102168.22;4955202;29;20039;-81
2023/01/03 11:50:24;;;;;;;31.48;14.23;;;;;;;13.75;100.00;102160.13;4950308;29;20047;-80
2023/01/03 11:52:52;;;;;;;;;;;;;;;13.59;100.00;102161.91;4954398;29;20422;-80
2023/01/03 11:55:41;;;;;;;37.03;17.38;;;;;;;13.73;100.00;102165.88;4954281;29;19922;-81
2023/01/03 11:58:19;;;;;;;40.55;17.73;;;;;;;13.61;100.00;102148.72;4955943;28;20047;-81
2023/01/03 12:01:01;;;;;;;38.05;16.52;;;;;;;13.75;99.63;102149.13;4952824;29;20039;-78
2023/01/03 12:04:10;;;;;;;29.55;15.30;;;;;;;13.59;100.00;102148.97;4952090;29;20046;-79
2023/01/03 12:06:52;;;;;;;34.50;16.35;;;;;;;13.72;100.00;102149.66;4951473;29;20051;-80
2023/01/03 12:10:09;;;;;;;30.92;15.63;;;;;;;13.56;100.00;102149.53;4953871;29;20074;-82
2023/01/03 12:12:48;;;;;;;35.55;16.23;;;;;;;13.12;100.00;102139.44;4951884;29;20398;-80
2023/01/03 12:15:22;;;;;;;32.78;16.00;;;;;;;13.22;100.00;102141.47;4947876;29;20055;-80
2023/01/03 12:18:00;;;;;;;37.95;16.17;;;;;;;13.37;100.00;102138.88;4952925;29;20054;-80
2023/01/03 12:20:36;;;;;;;32.58;15.77;;;;;;;13.41;100.00;102140.00;4952562;29;20054;-80
2023/01/03 12:23:14;;;;;;;31.02;14.32;;;;;;;13.50;100.00;102131.31;4951690;29;20604;-80
2023/01/03 12:25:51;;;;;;;32.20;15.35;;;;;;;13.48;100.00;102126.06;4952024;29;20058;-81
2023/01/03 12:28:46;;;;;;;32.45;14.90;;;;;;;13.52;100.00;102123.63;4950752;29;20506;-80
2023/01/03 12:31:53;;;;;;;32.70;15.93;;;;;;;13.37;100.00;102118.78;4952639;29;20426;-80
2023/01/03 12:34:38;;;;;;;36.53;15.77;;;;;;;13.30;100.00;102119.81;4932704;29;20047;-80
2023/01/03 12:37:23;;;;;;;36.00;16.55;;;;;;;13.47;100.00;102123.56;4952975;29;20066;-80
2023/01/03 12:40:04;;;;;;;37.10;16.27;;;;;;;13.55;100.00;102117.63;4953251;29;20043;-80